createdAt,value
2022-11-13T00:03:03.888Z,42.45
2022-11-13T00:08:26.008Z,40.83
2022-11-13T00:13:49.111Z,42.47
2022-11-13T00:19:10.915Z,39.88
2022-11-13T00:24:32.767Z,37.75
2022-11-13T00:29:54.538Z,38.17
2022-11-13T00:35:16.390Z,35.95
2022-11-13T00:40:38.178Z,36.67
2022-11-13T00:45:59.950Z,39.78
2022-11-13T00:51:21.847Z,37.58
2022-11-13T00:56:43.656Z,34.72
2022-11-13T01:02:05.531Z,36.30
2022-11-13T01:07:27.464Z,33.63
2022-11-13T01:12:49.214Z,32.50
2022-11-13T01:18:12.112Z,36.28
2022-11-13T01:23:34.153Z,33.65
2022-11-13T01:28:57.983Z,33.95
2022-11-13T01:34:19.781Z,34.08
2022-11-13T01:39:41.595Z,30.95
2022-11-13T01:45:04.507Z,32.47
2022-11-13T01:50:26.448Z,34.90
2022-11-13T01:55:48.376Z,34.38
2022-11-13T02:01:10.225Z,33.88
2022-11-13T02:06:42.653Z,30.63
2022-11-13T02:12:07.162Z,34.10
2022-11-13T02:17:37.498Z,34.42
2022-11-13T02:23:21.098Z,30.75
2022-11-13T02:28:42.947Z,33.60
2022-11-13T02:34:04.722Z,31.60
2022-11-13T02:39:26.512Z,30.15
2022-11-13T02:44:48.312Z,31.00
2022-11-13T02:50:10.840Z,30.23
2022-11-13T02:55:32.726Z,27.95
2022-11-13T03:00:54.519Z,28.67
2022-11-13T03:06:16.292Z,29.38
2022-11-13T03:11:38.108Z,29.55
2022-11-13T03:16:59.881Z,27.92
2022-11-13T03:22:21.653Z,28.95
2022-11-13T03:27:43.470Z,28.00
2022-11-13T03:33:05.264Z,29.77
2022-11-13T03:38:27.535Z,29.90
2022-11-13T03:43:49.526Z,27.98
2022-11-13T03:49:11.325Z,29.50
2022-11-13T03:54:33.150Z,26.17
2022-11-13T03:59:54.942Z,27.52
2022-11-13T04:05:21.577Z,27.92
2022-11-13T04:10:45.261Z,27.52
2022-11-13T04:16:07.393Z,23.73
2022-11-13T04:21:29.285Z,26.02
2022-11-13T04:26:51.122Z,24.80
2022-11-13T04:32:12.920Z,29.20
2022-11-13T04:37:35.084Z,27.00
2022-11-13T04:42:56.927Z,27.00
2022-11-13T04:48:18.718Z,27.42
2022-11-13T04:53:40.521Z,25.55
2022-11-13T04:59:02.340Z,25.73
2022-11-13T05:04:24.573Z,24.55
2022-11-13T05:09:46.342Z,25.80
2022-11-13T05:15:08.570Z,25.27
2022-11-13T05:20:30.344Z,29.08
2022-11-13T05:25:52.707Z,25.77
2022-11-13T05:31:16.326Z,27.40
2022-11-13T05:36:38.118Z,26.77
2022-11-13T05:41:59.889Z,24.40
2022-11-13T05:47:21.686Z,25.38
2022-11-13T05:52:43.478Z,26.75
2022-11-13T05:58:05.275Z,27.13
2022-11-13T06:03:27.059Z,26.58
2022-11-13T06:08:50.177Z,28.73
2022-11-13T06:14:12.079Z,28.70
2022-11-13T06:19:33.897Z,25.00
2022-11-13T06:24:55.674Z,21.60
2022-11-13T06:30:17.577Z,22.55
2022-11-13T06:35:39.474Z,25.05
2022-11-13T06:41:03.501Z,23.63
2022-11-13T06:46:28.868Z,24.90
2022-11-13T06:51:50.651Z,25.60
2022-11-13T06:57:12.434Z,23.48
2022-11-13T07:02:34.195Z,25.27
2022-11-13T07:07:56.256Z,27.17
2022-11-13T07:13:18.020Z,23.35
2022-11-13T07:18:39.841Z,26.50
2022-11-13T07:24:01.650Z,25.10
2022-11-13T07:29:23.443Z,22.02
2022-11-13T07:34:45.233Z,18.70
2022-11-13T07:40:07.497Z,18.73
2022-11-13T07:45:29.562Z,18.60
2022-11-13T07:50:51.454Z,17.23
2022-11-13T07:56:13.236Z,15.43
2022-11-13T08:01:35.059Z,18.25
2022-11-13T08:06:56.901Z,19.70
2022-11-13T08:12:18.688Z,18.95
2022-11-13T08:17:40.617Z,18.85
2022-11-13T08:23:05.055Z,17.48
2022-11-13T08:28:27.131Z,17.63
2022-11-13T08:33:50.220Z,17.83
2022-11-13T08:39:12.089Z,19.77
2022-11-13T08:44:33.908Z,28.85
2022-11-13T08:49:56.356Z,33.08
2022-11-13T08:55:18.149Z,26.63
2022-11-13T09:00:40.098Z,27.27
2022-11-13T09:06:05.649Z,22.52
2022-11-13T09:11:27.426Z,22.80
2022-11-13T09:16:49.234Z,24.00
2022-11-13T09:22:11.619Z,20.85
2022-11-13T09:27:33.414Z,19.40
2022-11-13T09:32:56.705Z,19.45
2022-11-13T09:38:18.499Z,21.08
2022-11-13T09:43:53.083Z,16.73
2022-11-13T09:49:29.274Z,16.42
2022-11-13T09:54:51.090Z,16.55
2022-11-13T10:00:19.221Z,16.23
2022-11-13T10:06:02.440Z,14.77
2022-11-13T10:11:36.529Z,11.45
2022-11-13T10:17:08.064Z,11.40
2022-11-13T10:22:39.328Z,10.63
2022-11-13T10:28:28.250Z,13.85
2022-11-13T10:33:54.327Z,13.52
2022-11-13T10:39:16.249Z,12.95
2022-11-13T10:44:38.050Z,12.30
2022-11-13T10:50:20.248Z,14.75
2022-11-13T10:55:42.968Z,15.45
2022-11-13T11:01:21.686Z,17.92
2022-11-13T11:12:30.893Z,13.18
2022-11-13T11:18:06.766Z,14.13
2022-11-13T11:23:54.742Z,16.02
2022-11-13T11:29:37.593Z,15.63
2022-11-13T11:35:16.487Z,17.63
2022-11-13T11:40:42.890Z,17.40
2022-11-13T11:46:05.101Z,17.25
2022-11-13T11:51:32.485Z,15.50
2022-11-13T11:57:14.282Z,14.50
2022-11-13T12:02:58.964Z,13.48
2022-11-13T12:08:38.195Z,13.40
2022-11-13T12:14:12.123Z,15.63
2022-11-13T12:19:51.974Z,15.45
2022-11-13T12:25:29.093Z,14.25
2022-11-13T12:31:14.376Z,16.77
2022-11-13T12:36:36.854Z,14.95
2022-11-13T12:42:10.337Z,16.70
2022-11-13T12:47:34.951Z,21.33
2022-11-13T12:53:04.017Z,16.42
2022-11-13T12:58:29.336Z,17.33
2022-11-13T13:04:12.446Z,17.35
2022-11-13T13:10:08.619Z,15.93
2022-11-13T13:15:34.912Z,18.38
2022-11-13T13:20:56.630Z,19.63
2022-11-13T13:26:21.221Z,19.75
2022-11-13T13:32:08.625Z,16.80
2022-11-13T13:38:20.464Z,20.95
2022-11-13T13:43:54.158Z,18.52
2022-11-13T13:49:19.711Z,21.35
2022-11-13T13:54:43.680Z,25.83
2022-11-13T14:00:12.071Z,19.88
2022-11-13T14:05:36.047Z,21.08
2022-11-13T14:10:57.863Z,19.77
2022-11-13T14:16:19.681Z,21.85
2022-11-13T14:21:44.515Z,23.35
2022-11-13T14:27:09.351Z,20.75
2022-11-13T14:32:34.327Z,24.83
2022-11-13T14:37:56.352Z,23.17
2022-11-13T14:43:27.713Z,23.92
2022-11-13T14:48:54.580Z,22.95
2022-11-13T15:00:15.971Z,25.67
2022-11-13T15:05:37.768Z,31.63
2022-11-13T15:10:59.574Z,30.27
2022-11-13T15:16:27.014Z,27.42
2022-11-13T15:22:20.285Z,29.33
2022-11-13T15:27:31.149Z,26.55
2022-11-13T15:32:52.990Z,25.05
2022-11-13T15:38:14.887Z,25.42
2022-11-13T15:43:36.676Z,24.90
2022-11-13T15:48:58.466Z,23.83
2022-11-13T15:54:28.450Z,21.83
2022-11-13T15:59:50.257Z,21.08
2022-11-13T16:05:12.033Z,23.17
2022-11-13T16:10:33.821Z,21.05
2022-11-13T16:15:55.699Z,22.23
2022-11-13T16:21:19.696Z,22.42
2022-11-13T16:26:49.828Z,23.83
2022-11-13T16:32:15.807Z,23.70
2022-11-13T16:37:37.694Z,26.50
2022-11-13T16:42:59.469Z,25.83
2022-11-13T16:48:21.240Z,24.45
2022-11-13T16:53:43.524Z,26.83
2022-11-13T16:59:05.300Z,27.67
2022-11-13T17:04:27.178Z,31.13
2022-11-13T17:09:58.864Z,30.20
2022-11-13T17:15:31.318Z,36.58
2022-11-13T17:20:53.119Z,39.35
2022-11-13T17:26:14.979Z,39.33
2022-11-13T17:31:36.939Z,39.90
2022-11-13T17:36:58.782Z,41.30
2022-11-13T17:42:20.612Z,41.75
2022-11-13T17:47:42.447Z,45.28
2022-11-13T17:53:04.238Z,41.92
2022-11-13T17:58:27.158Z,48.33
2022-11-13T18:03:54.881Z,48.90
2022-11-13T18:09:16.707Z,49.05
2022-11-13T18:14:38.482Z,45.15
2022-11-13T18:20:02.049Z,41.67
2022-11-13T18:25:24.334Z,43.00
2022-11-13T18:30:46.192Z,43.35
2022-11-13T18:36:08.592Z,47.15
2022-11-13T18:41:30.821Z,42.38
2022-11-13T18:46:52.665Z,43.58
2022-11-13T18:52:14.781Z,43.70
2022-11-13T18:57:36.618Z,41.70
2022-11-13T19:02:58.429Z,45.20
2022-11-13T19:08:20.255Z,50.20
2022-11-13T19:13:44.419Z,49.60
2022-11-13T19:19:19.095Z,42.42
2022-11-13T19:24:47.079Z,41.35
2022-11-13T19:30:09.237Z,41.53
2022-11-13T19:35:31.064Z,45.90
2022-11-13T19:40:53.030Z,46.75
2022-11-13T19:46:16.567Z,43.58
2022-11-13T19:51:38.436Z,38.10
2022-11-13T19:57:00.238Z,36.83
2022-11-13T20:02:22.082Z,33.25
2022-11-13T20:07:43.982Z,36.78
2022-11-13T20:13:06.080Z,44.63
2022-11-13T20:18:28.490Z,49.85
2022-11-13T20:23:52.377Z,47.83
2022-11-13T20:29:14.215Z,53.38
2022-11-13T20:34:36.085Z,45.15
2022-11-13T20:39:57.912Z,43.40
2022-11-13T20:45:19.807Z,42.30
2022-11-13T20:50:41.656Z,43.00
2022-11-13T20:56:04.312Z,38.50
2022-11-13T21:01:26.550Z,33.65
2022-11-13T21:06:48.461Z,29.75
2022-11-13T21:12:10.294Z,28.85
2022-11-13T21:17:32.195Z,27.05
2022-11-13T21:22:54.109Z,26.88
2022-11-13T21:28:27.071Z,25.13
2022-11-13T21:33:51.214Z,27.48
2022-11-13T21:39:13.000Z,30.55
2022-11-13T21:44:35.375Z,31.05
2022-11-13T21:49:57.136Z,32.17
2022-11-13T21:55:18.902Z,33.15
2022-11-13T22:00:40.670Z,35.60
2022-11-13T22:06:14.845Z,39.88
2022-11-13T22:11:36.625Z,37.83
2022-11-13T22:16:58.434Z,37.50
2022-11-13T22:22:20.211Z,38.63
2022-11-13T22:27:42.228Z,44.80
2022-11-13T22:33:04.054Z,47.03
2022-11-13T22:38:26.003Z,42.00
2022-11-13T22:43:49.950Z,35.97
2022-11-13T22:49:11.982Z,34.35
2022-11-13T22:54:33.777Z,37.28
2022-11-13T22:59:55.632Z,33.88
2022-11-13T23:05:17.472Z,29.85
2022-11-13T23:10:39.288Z,32.22
2022-11-13T23:16:01.784Z,28.35
2022-11-13T23:21:24.291Z,27.92
2022-11-13T23:26:46.055Z,26.20
2022-11-13T23:32:07.967Z,25.75
2022-11-13T23:37:29.779Z,26.35
2022-11-13T23:42:55.753Z,26.27
2022-11-13T23:48:18.112Z,23.65
2022-11-13T23:53:39.951Z,28.05
2022-11-13T23:59:02.152Z,27.38
